Terminal Aerodrome Forecast
Issued by NWS

Home | Current Version | Previous Version | Graphics & Text | Print | Product List | Glossary On
Versions: 1 2 3 4 5 6 7 8 9 10 11 12 13 14 15 16
000
FTUS43 KGRB 261138
TAFAUW
TAF
KAUW 261138Z 2612/2712 VRB03KT P6SM SCT120 BKN250
     FM261500 22007KT P6SM BKN120
     FM262000 18005KT P6SM BKN250
     FM270000 VRB03KT P6SM SKC
     FM270800 VRB03KT 3SM BR SKC
      TEMPO 2709/2712 1 1/2SM BR BKN012=

USA.gov is the U.S. government's official web portal to all federal, state and local government web resources and services.